Time;durP1;ratioP1;P1;durP2;ratioP2;P2;SDS_P1;SDS_P2;PMS_P1;PMS_P2;Temp;Humidity;BMP_temperature;BMP_pressure;BME280_temperature;BME280_humidity;BME280_pressure;Samples;Min_cycle;Max_cycle;Signal;HPM_P1;HPM_P2
2023/08/08 00:01:49;;;;;;;4.40;3.50;;;;;;;23.92;49.87;99031.16;5092428;28;20024;-51
2023/08/08 00:04:14;;;;;;;9.00;3.67;;;;;;;23.91;49.54;99022.13;5092782;28;20028;-56
2023/08/08 00:06:40;;;;;;;6.05;3.60;;;;;;;23.87;49.68;99025.53;5092715;28;20450;-57
2023/08/08 00:09:06;;;;;;;4.72;3.60;;;;;;;23.80;49.98;99031.09;5092444;28;20378;-60
2023/08/08 00:11:32;;;;;;;3.50;3.20;;;;;;;23.58;49.92;98993.31;5092558;28;20082;-54
2023/08/08 00:13:57;;;;;;;7.63;3.50;;;;;;;23.74;50.17;99007.44;5092151;28;20043;-55
2023/08/08 00:16:24;;;;;;;3.58;3.15;;;;;;;23.74;50.22;99008.25;5075024;28;20024;-56
2023/08/08 00:18:53;;;;;;;5.30;3.08;;;;;;;23.74;50.39;99018.34;5091969;28;20032;-53
2023/08/08 00:21:20;;;;;;;8.77;3.60;;;;;;;23.78;50.21;99023.16;5091935;28;20390;-53
2023/08/08 00:23:45;;;;;;;4.75;2.95;;;;;;;23.77;50.32;99017.91;5092560;28;20024;-57
2023/08/08 00:26:11;;;;;;;7.65;3.85;;;;;;;23.78;50.11;99014.94;5092452;28;20028;-55
2023/08/08 00:28:37;;;;;;;4.60;3.60;;;;;;;23.79;50.19;99007.56;5092710;28;20032;-57
2023/08/08 00:31:02;;;;;;;6.70;3.75;;;;;;;23.73;50.54;99009.31;5092936;28;20503;-54
2023/08/08 00:33:28;;;;;;;4.45;3.72;;;;;;;23.76;50.54;99027.16;5091967;28;20035;-56
2023/08/08 00:35:54;;;;;;;4.85;3.53;;;;;;;23.78;50.32;99005.91;5074685;28;20024;-53
2023/08/08 00:38:19;;;;;;;9.18;3.60;;;;;;;23.72;50.49;98995.91;5091967;28;20028;-54
2023/08/08 00:40:45;;;;;;;5.22;3.42;;;;;;;23.62;51.05;98993.72;5091487;28;20028;-56
2023/08/08 00:43:11;;;;;;;7.65;3.90;;;;;;;23.73;50.81;99001.13;5096444;28;20025;-55
2023/08/08 00:45:37;;;;;;;5.82;3.42;;;;;;;23.54;51.06;98981.19;5096861;28;20043;-55
2023/08/08 00:48:04;;;;;;;4.15;3.17;;;;;;;23.54;50.84;98992.13;5096694;28;20032;-55
2023/08/08 00:50:29;;;;;;;4.78;3.38;;;;;;;23.57;51.11;98978.00;5096489;28;20525;-53
2023/08/08 00:52:55;;;;;;;7.13;3.72;;;;;;;23.63;50.66;98982.56;5096350;28;20036;-53
2023/08/08 00:55:22;;;;;;;4.55;3.60;;;;;;;23.53;50.85;98982.25;5095609;28;20039;-56
2023/08/08 00:57:48;;;;;;;9.52;3.38;;;;;;;23.57;50.88;98988.94;5096047;28;20024;-56
2023/08/08 01:00:14;;;;;;;6.68;3.53;;;;;;;23.61;50.59;98984.66;5095890;28;20027;-52
2023/08/08 01:02:39;;;;;;;6.93;3.47;;;;;;;23.50;50.94;98983.53;5095957;28;20109;-54
2023/08/08 01:05:07;;;;;;;6.00;3.20;;;;;;;23.44;51.37;98981.72;5096031;28;20035;-55
2023/08/08 01:07:41;;;;;;;7.50;3.10;;;;;;;23.58;50.60;98971.47;5096014;28;20020;-53
2023/08/08 01:10:12;;;;;;;5.82;3.50;;;;;;;23.64;50.59;98983.38;5055793;28;20382;-51
2023/08/08 01:12:42;;;;;;;6.47;3.58;;;;;;;23.58;50.95;98982.41;5056078;28;20041;-53
2023/08/08 01:15:09;;;;;;;4.50;3.33;;;;;;;23.55;50.75;98968.38;5055238;28;20052;-55
2023/08/08 01:17:36;;;;;;;5.60;3.42;;;;;;;23.41;51.45;98967.72;5055769;28;20455;-53
2023/08/08 01:20:07;;;;;;;5.50;3.58;;;;;;;23.50;51.71;98958.97;5055578;28;20095;-55
2023/08/08 01:22:56;;;;;;;5.03;3.40;;;;;;;23.15;52.21;98915.91;5054813;28;20041;-55
2023/08/08 01:25:23;;;;;;;6.03;3.33;;;;;;;23.18;51.89;98933.72;5034488;28;20052;-52
2023/08/08 01:27:48;;;;;;;7.38;3.50;;;;;;;23.23;52.37;98945.59;5055207;28;20108;-57
2023/08/08 01:30:14;;;;;;;5.78;3.50;;;;;;;23.22;52.49;98959.50;5054943;28;20025;-57
2023/08/08 01:32:40;;;;;;;6.93;3.83;;;;;;;23.23;52.19;98974.81;5054980;28;20036;-60
2023/08/08 01:35:07;;;;;;;6.45;3.45;;;;;;;23.05;52.14;98916.44;5055356;28;20045;-51
2023/08/08 01:37:39;;;;;;;6.63;3.47;;;;;;;23.30;52.05;98951.03;5055217;28;20099;-53
2023/08/08 01:40:06;;;;;;;10.20;3.42;;;;;;;23.23;52.68;98967.44;5055298;28;20051;-54
2023/08/08 01:42:32;;;;;;;7.97;3.80;;;;;;;23.20;52.67;98958.91;5054451;28;20033;-55
2023/08/08 01:44:58;;;;;;;3.90;3.47;;;;;;;23.27;51.92;98962.41;5055216;28;20033;-52
2023/08/08 01:47:24;;;;;;;4.05;3.67;;;;;;;23.20;52.30;98950.72;5054757;28;20028;-55
2023/08/08 01:49:50;;;;;;;7.57;3.70;;;;;;;23.17;52.22;98940.25;5054715;28;20044;-55
2023/08/08 01:52:15;;;;;;;4.35;3.53;;;;;;;23.22;51.70;98959.50;5054520;28;20120;-55
2023/08/08 01:54:42;;;;;;;4.65;3.50;;;;;;;23.26;51.52;98958.00;5054463;28;20025;-62
2023/08/08 01:57:07;;;;;;;4.90;3.53;;;;;;;23.26;51.57;98960.75;5054758;28;20120;-57
2023/08/08 01:59:33;;;;;;;5.03;3.28;;;;;;;23.29;51.36;98932.16;5054570;28;20420;-52
2023/08/08 02:01:58;;;;;;;7.50;3.50;;;;;;;23.26;51.71;98947.09;5054313;28;20035;-54
2023/08/08 02:04:24;;;;;;;4.72;3.10;;;;;;;23.36;51.15;98944.63;5054379;28;20098;-52
2023/08/08 02:06:49;;;;;;;4.65;3.50;;;;;;;23.23;51.10;98939.31;5054629;28;20029;-53
2023/08/08 02:09:15;;;;;;;5.78;3.58;;;;;;;23.28;50.90;98953.16;5082394;28;20083;-53
2023/08/08 02:11:41;;;;;;;4.75;3.33;;;;;;;23.26;51.42;98966.19;5094914;28;20040;-51
2023/08/08 02:14:07;;;;;;;8.38;3.47;;;;;;;23.07;51.54;98936.13;5094546;28;20386;-55
2023/08/08 02:16:32;;;;;;;3.92;3.50;;;;;;;23.21;51.75;98961.38;5093999;28;20053;-56
2023/08/08 02:18:58;;;;;;;5.03;3.72;;;;;;;23.21;51.76;98963.31;5079803;28;20340;-56
2023/08/08 02:21:24;;;;;;;8.45;3.40;;;;;;;23.19;51.96;98968.16;5073411;28;20044;-57
2023/08/08 02:23:49;;;;;;;6.00;3.33;;;;;;;23.26;51.22;98966.19;5074362;28;20040;-55
2023/08/08 02:26:15;;;;;;;4.05;3.38;;;;;;;23.21;51.58;98955.09;5074382;28;20389;-55
2023/08/08 02:28:41;;;;;;;6.47;3.30;;;;;;;23.23;51.35;98966.63;5074499;28;20050;-52
2023/08/08 02:31:06;;;;;;;5.10;3.33;;;;;;;23.20;52.09;98961.63;5074165;28;20037;-49
2023/08/08 02:33:32;;;;;;;4.47;3.40;;;;;;;23.16;52.76;98954.97;5074777;28;20028;-56
2023/08/08 02:35:57;;;;;;;5.47;3.35;;;;;;;23.13;52.78;98960.84;5074318;28;20064;-52
2023/08/08 02:38:23;;;;;;;9.63;3.92;;;;;;;23.09;52.85;98961.31;5076801;28;20043;-55
2023/08/08 02:40:48;;;;;;;4.22;3.47;;;;;;;23.02;52.92;98967.91;5094016;28;20431;-54
2023/08/08 02:43:14;;;;;;;3.75;3.38;;;;;;;22.97;52.49;98962.28;5094384;28;20082;-61
2023/08/08 02:45:39;;;;;;;5.63;3.92;;;;;;;22.93;52.87;98961.94;5094627;28;20040;-55
2023/08/08 02:48:05;;;;;;;6.60;3.38;;;;;;;22.91;52.29;98958.59;5092214;28;20354;-56
2023/08/08 02:50:31;;;;;;;4.07;3.33;;;;;;;22.87;52.55;98951.91;5094049;28;20116;-54
2023/08/08 02:52:56;;;;;;;4.32;3.65;;;;;;;22.86;52.66;98955.69;5093828;28;20024;-55
2023/08/08 02:55:22;;;;;;;4.32;3.67;;;;;;;22.86;52.85;98947.50;5094089;28;20043;-54
2023/08/08 02:57:47;;;;;;;4.63;3.63;;;;;;;22.88;52.56;98948.09;5094256;28;20048;-53
2023/08/08 03:00:13;;;;;;;7.93;3.80;;;;;;;22.97;52.05;98965.88;5090993;28;20032;-54
2023/08/08 03:02:38;;;;;;;6.45;3.53;;;;;;;22.98;52.17;98963.97;5093509;28;20107;-51
2023/08/08 03:05:04;;;;;;;5.20;3.60;;;;;;;23.04;51.46;98952.97;5093161;28;20399;-52
2023/08/08 03:07:30;;;;;;;6.25;3.70;;;;;;;23.16;51.24;98966.69;5093875;28;20632;-53
2023/08/08 03:09:55;;;;;;;5.70;3.50;;;;;;;23.22;50.78;98968.50;5093075;28;20159;-55
2023/08/08 03:12:21;;;;;;;5.82;3.72;;;;;;;23.31;50.20;98973.72;5091883;28;20327;-55
2023/08/08 03:14:47;;;;;;;5.55;3.85;;;;;;;23.25;50.85;98994.56;5093772;28;20028;-54
2023/08/08 03:17:12;;;;;;;6.95;3.78;;;;;;;23.39;50.40;98975.28;5092915;28;20434;-55
2023/08/08 03:19:37;;;;;;;5.93;3.70;;;;;;;23.39;50.31;98965.22;5093496;28;20111;-52
2023/08/08 03:22:03;;;;;;;5.70;3.60;;;;;;;23.54;50.11;98978.47;5093454;28;20024;-55
2023/08/08 03:24:29;;;;;;;4.10;3.70;;;;;;;23.65;49.63;98985.91;5091469;28;20556;-50
2023/08/08 03:26:54;;;;;;;4.25;3.83;;;;;;;23.75;49.26;98970.84;5093298;28;20020;-58
2023/08/08 03:29:20;;;;;;;6.65;3.45;;;;;;;23.79;48.92;98986.53;5093455;28;20028;-55
2023/08/08 03:31:46;;;;;;;3.90;3.40;;;;;;;23.87;48.88;98971.72;5091609;28;20103;-53
2023/08/08 03:34:11;;;;;;;6.45;3.78;;;;;;;23.92;49.16;98976.47;5093691;28;20047;-57
2023/08/08 03:36:37;;;;;;;6.20;3.75;;;;;;;24.06;48.54;98980.72;5093170;28;20027;-54
2023/08/08 03:39:03;;;;;;;4.97;3.45;;;;;;;24.17;48.11;98976.34;5093152;28;20035;-59
2023/08/08 03:41:29;;;;;;;9.02;4.10;;;;;;;24.28;47.92;98974.72;5093232;28;20036;-57
2023/08/08 03:43:56;;;;;;;6.47;3.80;;;;;;;24.37;47.87;98964.25;5093020;28;20484;-58
2023/08/08 03:46:21;;;;;;;8.45;4.30;;;;;;;24.30;47.58;98978.03;5083567;28;20082;-51
2023/08/08 03:48:47;;;;;;;6.82;3.78;;;;;;;24.28;47.69;98965.66;5074513;28;20682;-56
2023/08/08 03:51:13;;;;;;;8.48;3.88;;;;;;;24.17;47.75;98970.88;5073163;28;20095;-57
2023/08/08 03:53:38;;;;;;;6.90;3.60;;;;;;;24.07;48.51;98976.91;5072554;28;20036;-54
2023/08/08 03:56:04;;;;;;;5.55;3.42;;;;;;;24.05;48.39;98986.41;5072823;28;20052;-55
2023/08/08 03:58:29;;;;;;;4.60;3.58;;;;;;;23.95;48.65;98978.75;5072626;28;20024;-52
2023/08/08 04:00:54;;;;;;;7.45;3.88;;;;;;;24.03;48.74;98985.81;5072183;28;20354;-57
2023/08/08 04:03:20;;;;;;;9.30;4.15;;;;;;;24.09;48.45;98987.59;5073901;28;20028;-54
2023/08/08 04:05:47;;;;;;;7.80;4.00;;;;;;;24.11;48.38;99004.59;5092999;28;20059;-53
2023/08/08 04:08:16;;;;;;;6.30;4.13;;;;;;;24.07;48.57;98995.22;5092420;28;20044;-51
2023/08/08 04:10:46;;;;;;;5.47;3.78;;;;;;;24.03;48.82;99011.28;5092819;28;20079;-53
2023/08/08 04:13:12;;;;;;;6.45;4.00;;;;;;;24.02;49.02;99006.03;5090895;28;20046;-55
2023/08/08 04:15:37;;;;;;;8.02;3.95;;;;;;;24.02;48.67;98995.09;5095606;28;20115;-55
2023/08/08 04:18:06;;;;;;;6.78;3.97;;;;;;;23.93;49.25;99002.75;5099422;28;20337;-54
2023/08/08 04:20:32;;;;;;;8.00;3.58;;;;;;;23.79;50.42;99002.94;5098636;28;20035;-55
2023/08/08 04:22:58;;;;;;;5.53;3.88;;;;;;;23.78;50.46;98994.97;5099387;28;20032;-56
2023/08/08 04:25:23;;;;;;;5.70;4.70;;;;;;;23.70;50.90;98993.38;5097451;28;20050;-56
2023/08/08 04:27:49;;;;;;;5.70;3.78;;;;;;;23.59;51.00;98986.78;5099713;28;20055;-54
2023/08/08 04:30:14;;;;;;;5.95;4.22;;;;;;;23.65;51.38;98991.38;5099512;28;20111;-56
2023/08/08 04:32:40;;;;;;;7.28;4.00;;;;;;;23.68;50.99;99000.16;5097662;28;20036;-55
2023/08/08 04:35:06;;;;;;;8.10;4.05;;;;;;;23.51;51.63;99004.38;5097986;28;20059;-55
2023/08/08 04:37:31;;;;;;;5.38;3.85;;;;;;;23.31;51.85;98974.53;5099104;28;20035;-52
2023/08/08 04:39:57;;;;;;;8.80;4.18;;;;;;;23.49;52.19;99002.91;5099360;28;20495;-54
2023/08/08 04:42:22;;;;;;;10.43;4.35;;;;;;;23.49;52.25;99017.38;5099443;28;20036;-57
2023/08/08 04:44:48;;;;;;;13.55;4.07;;;;;;;23.48;52.10;99012.16;5099229;28;20462;-55
2023/08/08 04:47:13;;;;;;;6.22;4.40;;;;;;;23.42;52.71;98999.44;5097067;28;20024;-50
2023/08/08 04:49:39;;;;;;;6.65;4.20;;;;;;;23.36;52.41;99001.19;5098929;28;20071;-48
2023/08/08 04:52:05;;;;;;;6.10;4.50;;;;;;;23.30;53.20;98993.91;5099022;28;20059;-53
2023/08/08 04:54:30;;;;;;;8.55;3.95;;;;;;;23.42;52.63;99004.91;5096730;28;20043;-55
2023/08/08 04:56:56;;;;;;;5.70;4.32;;;;;;;23.35;52.95;98994.03;5077790;28;20032;-52
2023/08/08 04:59:40;;;;;;;9.35;4.13;;;;;;;23.58;52.07;99008.91;5077194;28;20404;-62
2023/08/08 05:02:06;;;;;;;8.85;4.32;;;;;;;23.30;53.52;99002.91;5077583;28;20048;-55
2023/08/08 05:04:31;;;;;;;6.85;4.47;;;;;;;23.31;53.82;99001.84;5075140;28;20465;-55
2023/08/08 05:06:57;;;;;;;9.23;4.05;;;;;;;23.46;53.77;99009.66;5079270;28;20036;-57
2023/08/08 05:09:26;;;;;;;9.18;4.40;;;;;;;23.69;52.80;99012.75;5059452;28;20049;-62
2023/08/08 05:11:54;;;;;;;5.38;4.38;;;;;;;23.97;52.15;99027.72;5075520;28;20036;-56
2023/08/08 05:14:20;;;;;;;6.65;4.43;;;;;;;24.00;51.54;99019.91;5077437;28;20025;-56
2023/08/08 05:16:46;;;;;;;8.38;4.38;;;;;;;24.20;51.21;99027.00;5077045;28;20024;-59
2023/08/08 05:19:12;;;;;;;9.98;4.28;;;;;;;24.33;50.34;99012.28;5077493;28;20024;-59
2023/08/08 05:21:37;;;;;;;12.00;3.97;;;;;;;24.67;50.04;99050.91;5077751;28;20020;-55
2023/08/08 05:24:03;;;;;;;10.30;4.05;;;;;;;24.72;49.44;99023.66;5077812;28;20075;-56
2023/08/08 05:26:29;;;;;;;8.38;4.50;;;;;;;24.70;49.46;99011.25;5075382;28;20514;-58
2023/08/08 05:28:54;;;;;;;13.90;4.45;;;;;;;24.59;49.86;99005.56;5074839;28;20066;-60
2023/08/08 05:31:20;;;;;;;9.27;4.40;;;;;;;24.56;50.08;99016.13;5073958;28;20052;-59
2023/08/08 05:33:48;;;;;;;5.78;4.28;;;;;;;24.54;50.70;99008.16;5074773;28;20376;-58
2023/08/08 05:36:13;;;;;;;7.45;4.63;;;;;;;24.58;50.25;99016.72;5072294;28;20032;-55
2023/08/08 05:38:39;;;;;;;11.70;4.70;;;;;;;24.74;49.27;99018.78;5074639;28;20024;-56
2023/08/08 05:41:04;;;;;;;4.72;4.13;;;;;;;24.90;49.04;99021.91;5074518;28;20125;-59
2023/08/08 05:43:30;;;;;;;7.13;4.05;;;;;;;25.03;48.71;99021.66;5074159;28;20443;-57
2023/08/08 05:45:55;;;;;;;9.65;4.60;;;;;;;25.37;47.84;99026.50;5074404;28;20020;-60
2023/08/08 05:48:21;;;;;;;8.70;4.07;;;;;;;26.57;45.03;99000.25;5075056;28;20120;-56
2023/08/08 05:50:46;;;;;;;9.07;3.97;;;;;;;28.32;41.08;99016.53;5074721;28;20032;-60
2023/08/08 05:53:12;;;;;;;7.25;4.10;;;;;;;29.60;38.09;99010.25;5071706;28;20078;-57
2023/08/08 05:55:40;;;;;;;7.40;3.58;;;;;;;32.46;33.99;99008.63;5074725;28;20114;-55
2023/08/08 05:58:05;;;;;;;7.65;4.20;;;;;;;34.73;29.81;98997.75;5074713;28;20470;-59
2023/08/08 06:00:31;;;;;;;8.57;3.90;;;;;;;34.96;29.29;99011.78;5074653;28;20028;-58
2023/08/08 06:02:57;;;;;;;8.82;3.92;;;;;;;35.30;28.83;99014.22;5074281;28;20457;-60
2023/08/08 06:05:24;;;;;;;6.75;3.90;;;;;;;35.71;28.16;99008.97;5073127;28;20089;-59
2023/08/08 06:07:49;;;;;;;8.50;3.78;;;;;;;35.74;27.55;99017.50;5074737;28;20035;-54
2023/08/08 06:10:15;;;;;;;8.60;3.72;;;;;;;35.03;28.83;99015.84;5094488;28;20917;-58
2023/08/08 06:12:41;;;;;;;6.85;4.15;;;;;;;34.25;29.77;99023.81;5094780;28;20106;-57
2023/08/08 06:15:08;;;;;;;10.10;4.18;;;;;;;33.18;31.36;99025.72;5094678;28;20032;-57
2023/08/08 06:17:34;;;;;;;8.48;3.67;;;;;;;32.03;33.07;99014.75;5094845;28;20028;-59
2023/08/08 06:19:59;;;;;;;7.60;4.00;;;;;;;31.07;34.55;99010.94;5094727;28;20035;-57
2023/08/08 06:22:25;;;;;;;12.63;3.67;;;;;;;30.31;36.11;99026.44;5094801;28;20059;-65
2023/08/08 06:24:51;;;;;;;8.07;3.58;;;;;;;29.61;37.47;99014.66;5094543;28;20485;-57
2023/08/08 06:27:17;;;;;;;7.32;3.70;;;;;;;29.06;38.23;99031.47;5094406;28;20370;-55
2023/08/08 06:29:43;;;;;;;12.05;4.20;;;;;;;28.65;39.17;99031.13;5094396;28;20028;-54
2023/08/08 06:32:09;;;;;;;8.95;4.15;;;;;;;28.32;39.91;99027.56;5094684;28;20115;-55
2023/08/08 06:34:34;;;;;;;10.75;4.25;;;;;;;28.24;40.19;99023.34;5094729;28;20039;-57
2023/08/08 06:37:00;;;;;;;10.75;4.55;;;;;;;28.34;39.90;99033.63;5094472;28;20362;-56
2023/08/08 06:39:25;;;;;;;11.95;4.43;;;;;;;28.32;40.19;99033.06;5093734;28;20125;-54
2023/08/08 06:41:51;;;;;;;7.60;4.15;;;;;;;28.15;40.42;99028.50;5094379;28;20046;-59
2023/08/08 06:44:17;;;;;;;9.18;4.30;;;;;;;27.98;40.41;98992.00;5095137;28;20028;-56
2023/08/08 06:46:42;;;;;;;9.70;4.20;;;;;;;28.89;39.27;99023.38;5094557;28;20024;-57
2023/08/08 06:49:09;;;;;;;9.85;4.35;;;;;;;30.11;37.13;99016.22;5094157;28;20495;-55
2023/08/08 06:51:35;;;;;;;12.40;4.70;;;;;;;30.36;36.10;98990.53;5075858;28;20111;-58
2023/08/08 06:54:00;;;;;;;12.65;5.32;;;;;;;30.46;36.41;99011.81;5075772;28;20164;-58
2023/08/08 06:56:27;;;;;;;11.02;4.97;;;;;;;30.49;36.52;99023.13;5094143;28;20080;-59
2023/08/08 06:58:53;;;;;;;12.40;4.80;;;;;;;31.04;35.63;99019.78;5092036;28;20035;-57
2023/08/08 07:01:19;;;;;;;11.32;5.13;;;;;;;31.63;34.51;99028.50;5093843;28;20024;-54
2023/08/08 07:03:46;;;;;;;9.25;4.78;;;;;;;31.98;33.94;99036.06;5076168;28;20070;-56
2023/08/08 07:06:12;;;;;;;9.45;4.80;;;;;;;32.26;33.14;99036.44;5093446;28;20024;-56
2023/08/08 07:08:41;;;;;;;9.35;5.57;;;;;;;32.67;32.60;99044.47;5093247;28;20048;-55
2023/08/08 07:11:07;;;;;;;10.10;5.78;;;;;;;33.40;31.38;99039.06;5092809;28;20114;-56
2023/08/08 07:13:32;;;;;;;12.23;5.88;;;;;;;33.64;30.69;99019.63;5090348;28;20115;-61
2023/08/08 07:15:58;;;;;;;9.32;5.53;;;;;;;34.21;30.14;99043.84;5083609;28;20054;-58
2023/08/08 07:18:24;;;;;;;7.43;5.28;;;;;;;34.67;29.35;99046.22;5073956;28;20027;-61
2023/08/08 07:20:49;;;;;;;13.90;5.57;;;;;;;34.23;30.20;99040.78;5092412;28;20079;-64
2023/08/08 07:23:16;;;;;;;8.90;5.22;;;;;;;34.06;30.33;99041.31;5092185;28;20101;-59
2023/08/08 07:25:42;;;;;;;9.73;6.18;;;;;;;33.46;31.11;99054.56;5089650;28;20036;-61
2023/08/08 07:28:08;;;;;;;7.80;5.55;;;;;;;32.52;32.48;99036.28;5092377;28;20054;-59
2023/08/08 07:30:34;;;;;;;7.32;4.90;;;;;;;32.78;32.69;99042.44;5091694;28;20094;-58
2023/08/08 07:33:00;;;;;;;10.85;6.03;;;;;;;33.40;31.38;99039.06;5089792;28;20052;-64
2023/08/08 07:35:26;;;;;;;11.25;6.38;;;;;;;33.09;31.68;99041.34;5074223;28;20469;-61
2023/08/08 07:37:51;;;;;;;14.93;6.15;;;;;;;32.49;32.31;99041.28;5091726;28;20032;-62
2023/08/08 07:40:19;;;;;;;9.32;5.50;;;;;;;31.90;33.23;99037.50;5077461;28;20051;-59
2023/08/08 07:42:49;;;;;;;10.90;6.47;;;;;;;31.50;34.52;99051.22;5091726;28;20040;-57
2023/08/08 07:45:16;;;;;;;11.45;5.75;;;;;;;31.60;34.31;99056.72;5091727;28;20104;-58
2023/08/08 07:47:41;;;;;;;16.00;6.00;;;;;;;31.81;33.99;99051.09;5091855;28;20039;-57
2023/08/08 07:50:10;;;;;;;12.85;5.80;;;;;;;32.00;33.77;99061.53;5073868;28;20061;-61
2023/08/08 07:52:36;;;;;;;9.82;5.88;;;;;;;32.10;34.06;99052.34;5080802;28;20036;-59
2023/08/08 07:55:03;;;;;;;12.93;5.82;;;;;;;31.81;34.27;99056.63;5089429;28;20038;-60
2023/08/08 07:57:30;;;;;;;18.40;6.43;;;;;;;31.31;35.10;99053.78;5092041;28;20030;-58
2023/08/08 07:59:56;;;;;;;14.77;6.03;;;;;;;31.05;35.33;99057.38;5091419;28;20024;-63
2023/08/08 08:02:21;;;;;;;13.73;6.00;;;;;;;31.03;35.70;99051.31;5074128;28;20445;-61
2023/08/08 08:04:47;;;;;;;19.50;6.30;;;;;;;30.86;35.97;99050.75;5091675;28;20036;-62
2023/08/08 08:07:13;;;;;;;10.40;5.43;;;;;;;30.61;36.45;99049.69;5089380;28;20020;-62
2023/08/08 08:09:39;;;;;;;12.05;6.22;;;;;;;30.39;36.57;99059.03;5091035;28;20040;-59
2023/08/08 08:12:04;;;;;;;12.50;5.93;;;;;;;30.27;36.97;99047.41;5091557;28;20105;-61
2023/08/08 08:14:30;;;;;;;10.85;5.55;;;;;;;30.30;36.85;99033.06;5091777;28;20049;-70
2023/08/08 08:16:56;;;;;;;16.00;6.60;;;;;;;30.51;37.13;99045.78;5055806;28;20489;-60
2023/08/08 08:19:21;;;;;;;11.63;5.30;;;;;;;30.68;36.93;99066.81;5091021;28;20111;-58
2023/08/08 08:21:47;;;;;;;11.80;5.70;;;;;;;30.62;36.57;99045.81;5091423;28;20686;-60
2023/08/08 08:24:12;;;;;;;13.70;6.40;;;;;;;30.30;36.74;99044.09;5089628;28;20035;-59
2023/08/08 08:26:38;;;;;;;10.52;6.65;;;;;;;29.86;37.58;99071.00;5090815;28;20454;-59
2023/08/08 08:29:04;;;;;;;13.38;6.65;;;;;;;29.33;38.25;99063.59;5057946;28;20096;-56
2023/08/08 08:31:29;;;;;;;12.68;5.78;;;;;;;28.83;39.99;99075.94;5089733;28;20032;-56
2023/08/08 08:33:55;;;;;;;13.38;6.10;;;;;;;28.48;40.75;99078.91;5091562;28;20381;-61
2023/08/08 08:36:21;;;;;;;16.38;6.35;;;;;;;28.21;40.99;99081.66;5091489;28;20955;-59
2023/08/08 08:38:47;;;;;;;12.88;6.05;;;;;;;28.08;41.87;99074.63;5074146;28;20439;-53
2023/08/08 08:41:17;;;;;;;10.93;6.70;;;;;;;28.07;41.65;99064.69;5073967;28;20505;-57
2023/08/08 08:43:43;;;;;;;17.00;6.65;;;;;;;28.07;41.68;99075.72;5090601;28;20036;-59
2023/08/08 08:46:11;;;;;;;20.95;7.53;;;;;;;28.41;41.30;99078.28;5090851;28;20043;-55
2023/08/08 08:48:37;;;;;;;15.90;6.80;;;;;;;28.90;40.26;99071.00;5091998;28;20028;-57
2023/08/08 08:51:03;;;;;;;15.77;6.75;;;;;;;29.21;39.16;99072.06;5087620;28;20035;-59
2023/08/08 08:53:29;;;;;;;14.48;6.85;;;;;;;29.32;38.80;99094.19;5097791;28;20032;-55
2023/08/08 08:55:57;;;;;;;23.42;7.25;;;;;;;29.25;39.24;99091.66;5099939;28;20052;-54
2023/08/08 08:58:24;;;;;;;13.85;6.15;;;;;;;29.29;39.41;99084.50;5093609;28;20059;-63
2023/08/08 09:00:51;;;;;;;20.30;7.18;;;;;;;29.34;39.73;99089.25;5107718;28;20024;-61
2023/08/08 09:03:19;;;;;;;16.08;6.50;;;;;;;29.61;39.12;99080.84;5093939;28;20039;-60
2023/08/08 09:05:45;;;;;;;15.95;6.75;;;;;;;29.72;38.25;99056.09;5109700;28;20032;-58
2023/08/08 09:08:11;;;;;;;19.75;7.07;;;;;;;29.98;37.94;99076.28;5115816;28;20048;-59
2023/08/08 09:10:38;;;;;;;14.07;6.68;;;;;;;30.36;37.86;99082.50;5100840;28;20094;-57
2023/08/08 09:13:04;;;;;;;16.95;7.00;;;;;;;30.73;37.24;99088.06;5094987;28;20036;-63
2023/08/08 09:15:34;;;;;;;15.95;6.43;;;;;;;31.22;35.98;99089.47;5095068;28;20031;-55
2023/08/08 09:18:00;;;;;;;16.88;7.05;;;;;;;31.31;35.44;99076.72;5095190;28;20032;-58
2023/08/08 09:20:28;;;;;;;17.13;7.72;;;;;;;31.15;35.28;99059.28;5077356;28;20114;-59
2023/08/08 09:22:54;;;;;;;13.98;6.90;;;;;;;31.44;35.55;99085.53;5077677;28;20130;-60
2023/08/08 09:25:19;;;;;;;17.42;7.00;;;;;;;31.69;34.64;99075.50;5095112;28;20119;-62
2023/08/08 09:27:45;;;;;;;13.35;7.30;;;;;;;31.96;34.72;99082.59;5095656;28;20027;-61
2023/08/08 09:30:11;;;;;;;13.90;7.75;;;;;;;32.21;33.90;99076.91;5094142;28;20036;-61
2023/08/08 09:32:37;;;;;;;18.23;7.40;;;;;;;32.24;34.15;99080.22;5095070;28;20035;-62
2023/08/08 09:35:03;;;;;;;16.45;7.22;;;;;;;32.43;33.92;99095.09;5094990;28;20050;-66
2023/08/08 09:37:29;;;;;;;15.98;8.35;;;;;;;32.31;33.85;99102.88;5094308;28;20063;-61
2023/08/08 09:39:59;;;;;;;18.60;8.80;;;;;;;31.90;34.52;99096.47;5059954;28;20103;-64
2023/08/08 09:42:29;;;;;;;12.70;7.40;;;;;;;31.62;34.77;99100.69;5076944;28;20454;-63
2023/08/08 09:44:56;;;;;;;21.65;8.13;;;;;;;31.67;34.94;99091.56;5076971;28;20111;-64
2023/08/08 09:47:22;;;;;;;13.05;7.13;;;;;;;31.73;35.44;99095.94;5073479;28;20111;-62
2023/08/08 09:49:49;;;;;;;14.93;7.82;;;;;;;31.59;35.37;99092.97;5093535;28;20099;-60
2023/08/08 09:52:15;;;;;;;14.55;8.60;;;;;;;31.33;35.81;99088.31;5094636;28;20555;-62
2023/08/08 09:54:41;;;;;;;12.93;7.85;;;;;;;30.93;36.61;99093.59;5077021;28;20081;-61
2023/08/08 09:57:07;;;;;;;13.50;7.53;;;;;;;30.71;36.69;99096.66;5095114;28;20024;-63
2023/08/08 09:59:35;;;;;;;19.27;7.53;;;;;;;30.64;37.09;99104.41;5095368;28;20028;-60
2023/08/08 10:02:01;;;;;;;20.58;8.60;;;;;;;30.49;37.79;99099.63;5093883;28;20024;-65
2023/08/08 10:04:27;;;;;;;16.13;7.72;;;;;;;30.56;37.35;99100.22;5093725;28;20330;-61
2023/08/08 10:06:52;;;;;;;34.15;10.40;;;;;;;30.40;37.05;99085.56;5078699;28;20035;-62
2023/08/08 10:09:18;;;;;;;43.55;9.50;;;;;;;30.63;37.12;99098.03;5094017;28;20110;-64
2023/08/08 10:11:45;;;;;;;18.38;7.70;;;;;;;30.73;36.92;99086.16;5058756;28;20036;-64
2023/08/08 10:14:11;;;;;;;13.73;7.72;;;;;;;30.83;36.79;99099.16;5090692;28;20028;-69
2023/08/08 10:16:37;;;;;;;14.65;8.63;;;;;;;30.92;36.11;99102.19;5093415;28;20037;-66
2023/08/08 10:19:05;;;;;;;14.68;8.15;;;;;;;31.01;36.17;99094.97;5093953;28;20063;-64
2023/08/08 10:21:35;;;;;;;16.95;8.13;;;;;;;31.20;36.01;99106.31;5094864;28;20434;-65
2023/08/08 10:24:09;;;;;;;13.60;8.18;;;;;;;31.34;35.27;99103.78;5094410;28;20097;-68
2023/08/08 10:26:52;;;;;;;18.40;8.07;;;;;;;31.55;35.52;99100.97;5094830;28;20055;-70
2023/08/08 10:29:19;;;;;;;16.00;7.50;;;;;;;31.57;35.23;99104.28;5093926;28;20032;-66
2023/08/08 10:31:52;;;;;;;11.88;7.00;;;;;;;31.68;35.92;99102.31;5085920;28;20020;-67
2023/08/08 10:34:20;;;;;;;14.13;7.75;;;;;;;31.57;36.13;99111.78;5071244;28;20024;-64
2023/08/08 10:36:55;;;;;;;16.70;7.97;;;;;;;31.40;35.97;99107.38;5094054;28;20035;-64
2023/08/08 10:39:21;;;;;;;18.05;8.18;;;;;;;30.97;36.55;99110.47;5076302;28;20085;-62
2023/08/08 10:41:50;;;;;;;16.58;7.32;;;;;;;30.84;36.74;99111.00;5093993;28;20128;-63
2023/08/08 10:44:25;;;;;;;13.02;7.07;;;;;;;30.99;36.76;99113.78;5093334;28;20024;-71
2023/08/08 10:46:53;;;;;;;19.08;8.73;;;;;;;30.91;37.00;99117.09;5092601;28;20036;-60
2023/08/08 10:49:19;;;;;;;15.88;7.85;;;;;;;30.57;37.85;99126.72;5094038;28;20028;-61
2023/08/08 10:51:46;;;;;;;14.38;8.27;;;;;;;30.31;38.31;99114.78;5093948;28;20024;-64
2023/08/08 10:54:17;;;;;;;16.35;8.88;;;;;;;30.33;38.65;99129.16;5093335;28;20036;-60
2023/08/08 10:56:51;;;;;;;14.80;8.50;;;;;;;30.43;38.21;99134.72;5093858;28;20036;-60
2023/08/08 10:59:19;;;;;;;17.20;9.05;;;;;;;30.20;38.89;99127.72;5093793;28;20082;-61
2023/08/08 11:01:47;;;;;;;20.13;9.65;;;;;;;29.90;39.24;99138.38;5091482;28;20427;-63
2023/08/08 11:04:13;;;;;;;11.10;8.45;;;;;;;29.70;39.95;99141.03;5073231;28;20419;-61
2023/08/08 11:06:40;;;;;;;14.32;9.13;;;;;;;29.53;40.17;99128.25;5073069;28;20047;-62
2023/08/08 11:09:07;;;;;;;13.73;8.75;;;;;;;29.39;40.54;99122.34;5087258;28;20488;-73
2023/08/08 11:11:42;;;;;;;12.75;8.57;;;;;;;29.55;40.41;99141.78;5094087;28;20031;-60
2023/08/08 11:14:13;;;;;;;15.82;10.07;;;;;;;29.39;40.14;99136.13;5093288;28;20079;-67
2023/08/08 11:16:39;;;;;;;14.70;8.93;;;;;;;29.22;40.72;99134.34;5092904;28;20024;-67
2023/08/08 11:19:05;;;;;;;14.60;8.23;;;;;;;29.06;41.00;99132.59;5089202;28;20119;-67
2023/08/08 11:21:35;;;;;;;14.77;8.15;;;;;;;29.03;41.14;99147.72;5093147;28;20115;-66
2023/08/08 11:24:01;;;;;;;16.77;8.20;;;;;;;28.82;41.52;99132.97;5092441;28;20395;-64
2023/08/08 11:26:27;;;;;;;20.55;8.38;;;;;;;28.72;42.23;99146.59;5089536;28;20039;-68